« Back
NWS Peachtree City, Ga » Text Product » CSG Terminal Aerodrome Forecast


Printer-friendly Version
Current Version              Previous Versions:   1  2  3  4  5  6  7  8  9  

Terminal Aerodrome Forecast

145
FTUS42 KFFC 271732
TAFCSG
TAF
KCSG 271732Z 2718/2818 16005KT P6SM SCT050 BKN250
     FM272300 13003KT P6SM FEW250
     FM281200 09004KT P6SM SKC=

USA.gov is the U.S. government's official web portal to all federal, state and local government web resources and services.